createdAt,value
2023-02-14T00:00:08.260Z,2.80
2023-02-14T00:02:36.895Z,2.80
2023-02-14T00:05:05.614Z,2.80
2023-02-14T00:07:34.421Z,3.00
2023-02-14T00:10:02.748Z,2.90
2023-02-14T00:12:31.425Z,2.80
2023-02-14T00:15:18.009Z,2.70
2023-02-14T00:17:46.361Z,2.70
2023-02-14T00:20:14.733Z,2.70
2023-02-14T00:22:43.223Z,2.60
2023-02-14T00:25:11.805Z,2.50
2023-02-14T00:27:41.310Z,2.50
2023-02-14T00:30:11.994Z,2.40
2023-02-14T00:32:41.856Z,2.40
2023-02-14T00:35:11.217Z,2.30
2023-02-14T00:37:42.117Z,2.30
2023-02-14T00:40:11.447Z,2.10
2023-02-14T00:42:41.531Z,1.90
2023-02-14T00:45:10.238Z,1.60
2023-02-14T00:47:38.583Z,1.50
2023-02-14T00:50:07.125Z,1.60
2023-02-14T00:52:35.510Z,1.30
2023-02-14T00:55:04.450Z,1.60
2023-02-14T00:57:32.941Z,1.40
2023-02-14T01:00:01.646Z,1.60
2023-02-14T01:02:32.019Z,1.60
2023-02-14T01:05:00.403Z,1.60
2023-02-14T01:07:28.554Z,1.50
2023-02-14T01:09:57.019Z,1.40
2023-02-14T01:12:25.707Z,1.60
2023-02-14T01:14:54.067Z,1.60
2023-02-14T01:17:22.884Z,1.60
2023-02-14T01:19:54.609Z,1.60
2023-02-14T01:22:22.890Z,1.50
2023-02-14T01:24:53.280Z,1.40
2023-02-14T01:27:22.363Z,1.30
2023-02-14T01:29:50.938Z,1.00
2023-02-14T01:32:20.486Z,1.20
2023-02-14T01:34:48.925Z,1.20
2023-02-14T01:37:18.913Z,1.10
2023-02-14T01:39:47.272Z,1.10
2023-02-14T01:42:15.866Z,1.10
2023-02-14T01:44:49.970Z,1.10
2023-02-14T01:47:18.579Z,1.10
2023-02-14T01:49:53.074Z,1.10
2023-02-14T01:52:38.659Z,1.00
2023-02-14T01:55:17.453Z,1.10
2023-02-14T01:58:05.113Z,1.10
2023-02-14T02:00:55.737Z,1.00
2023-02-14T02:03:32.164Z,0.90
2023-02-14T02:06:35.828Z,1.00
2023-02-14T02:09:20.875Z,1.00
2023-02-14T02:11:49.530Z,1.00
2023-02-14T02:14:21.210Z,1.00
2023-02-14T02:17:06.552Z,1.00
2023-02-14T02:19:41.206Z,1.00
2023-02-14T02:22:43.629Z,1.00
2023-02-14T02:25:39.638Z,0.70
2023-02-14T02:28:40.547Z,0.70
2023-02-14T02:31:21.598Z,0.60
2023-02-14T02:34:21.406Z,0.70
2023-02-14T02:37:08.319Z,0.50
2023-02-14T02:39:48.703Z,0.10
2023-02-14T02:42:42.861Z,0.10
2023-02-14T02:45:32.781Z,0.40
2023-02-14T02:48:09.402Z,0.50
2023-02-14T02:51:04.738Z,0.60
2023-02-14T02:53:58.228Z,0.70
2023-02-14T02:56:50.044Z,0.60
2023-02-14T02:59:30.967Z,0.60
2023-02-14T03:02:07.105Z,0.70
2023-02-14T03:04:55.318Z,0.70
2023-02-14T03:07:39.902Z,0.70
2023-02-14T03:10:20.592Z,0.70
2023-02-14T03:12:58.821Z,0.80
2023-02-14T03:15:52.466Z,0.70
2023-02-14T03:19:42.987Z,0.80
2023-02-14T03:22:32.890Z,0.50
2023-02-14T03:25:23.598Z,0.50
2023-02-14T03:28:11.682Z,0.20
2023-02-14T03:30:59.201Z,0.00
2023-02-14T03:33:40.519Z,-0.10
2023-02-14T03:36:15.029Z,-0.10
2023-02-14T03:38:57.783Z,-0.10
2023-02-14T03:41:33.077Z,0.00
2023-02-14T03:44:07.689Z,0.00
2023-02-14T03:46:43.220Z,0.00
2023-02-14T03:49:20.230Z,0.00
2023-02-14T03:51:57.435Z,-0.30
2023-02-14T03:54:47.234Z,0.00
2023-02-14T03:57:26.516Z,0.10
2023-02-14T04:00:03.719Z,0.00
2023-02-14T04:03:30.665Z,0.00
2023-02-14T04:06:14.664Z,0.10
2023-02-14T04:09:49.230Z,0.00
2023-02-14T04:12:50.189Z,0.00
2023-02-14T04:16:06.906Z,-0.10
2023-02-14T04:19:07.431Z,0.20
2023-02-14T04:26:04.315Z,-0.10
2023-02-14T04:33:56.335Z,-0.20
2023-02-14T04:53:46.162Z,-0.10
2023-02-14T05:01:33.065Z,-0.40
2023-02-14T05:10:43.173Z,-0.50
2023-02-14T05:18:27.067Z,-0.60
2023-02-14T05:20:55.348Z,-0.60
2023-02-14T05:23:23.594Z,-0.60
2023-02-14T05:25:52.454Z,-0.60
2023-02-14T05:28:20.937Z,-0.70
2023-02-14T05:30:53.824Z,-0.60
2023-02-14T05:33:28.041Z,-0.50
2023-02-14T05:35:58.466Z,-0.60
2023-02-14T05:38:26.533Z,-0.80
2023-02-14T05:40:54.446Z,-0.80
2023-02-14T05:43:22.291Z,-0.70
2023-02-14T05:45:50.161Z,-0.50
2023-02-14T05:48:18.220Z,-0.50
2023-02-14T05:50:46.102Z,-0.60
2023-02-14T05:53:14.175Z,-0.60
2023-02-14T05:55:42.329Z,-0.70
2023-02-14T05:58:35.959Z,-0.70
2023-02-14T06:01:04.797Z,-0.60
2023-02-14T06:03:32.729Z,-0.70
2023-02-14T06:06:02.913Z,-0.70
2023-02-14T06:08:30.926Z,-0.70
2023-02-14T06:10:59.192Z,-0.80
2023-02-14T06:13:27.302Z,-1.00
2023-02-14T06:15:55.279Z,-1.00
2023-02-14T06:18:27.647Z,-1.00
2023-02-14T06:20:55.925Z,-1.00
2023-02-14T06:23:24.410Z,-0.90
2023-02-14T06:25:52.357Z,-0.70
2023-02-14T06:28:20.337Z,-0.40
2023-02-14T06:30:48.400Z,-0.10
2023-02-14T06:33:16.430Z,0.10
2023-02-14T06:35:44.345Z,0.50
2023-02-14T06:38:12.319Z,0.70
2023-02-14T06:40:40.271Z,1.00
2023-02-14T06:43:08.813Z,1.20
2023-02-14T06:45:36.890Z,1.10
2023-02-14T06:48:05.037Z,0.90
2023-02-14T06:50:33.341Z,1.40
2023-02-14T06:53:01.530Z,1.90
2023-02-14T06:55:29.415Z,1.80
2023-02-14T06:57:57.324Z,2.00
2023-02-14T07:00:25.269Z,2.20
2023-02-14T07:02:53.168Z,2.50
2023-02-14T07:05:22.021Z,3.10
2023-02-14T07:07:50.073Z,3.40
2023-02-14T07:10:18.151Z,2.60
2023-02-14T07:12:46.010Z,2.60
2023-02-14T07:15:14.270Z,3.00
2023-02-14T07:17:42.529Z,3.40
2023-02-14T07:20:12.143Z,4.30
2023-02-14T07:22:40.562Z,4.30
2023-02-14T07:25:09.261Z,4.20
2023-02-14T07:27:37.705Z,4.30
2023-02-14T07:30:08.399Z,4.20
2023-02-14T07:32:41.194Z,4.60
2023-02-14T07:35:09.710Z,4.90
2023-02-14T07:37:37.734Z,4.40
2023-02-14T07:40:12.499Z,4.40
2023-02-14T07:42:43.627Z,5.10
2023-02-14T07:45:21.088Z,5.90
2023-02-14T07:47:55.019Z,5.50
2023-02-14T07:50:23.779Z,5.10
2023-02-14T07:52:52.404Z,5.30
2023-02-14T07:55:20.458Z,5.70
2023-02-14T07:57:49.354Z,6.70
2023-02-14T08:00:18.632Z,7.40
2023-02-14T08:02:47.264Z,7.40
2023-02-14T08:05:16.144Z,6.70
2023-02-14T08:07:44.468Z,6.90
2023-02-14T08:10:13.336Z,7.30
2023-02-14T08:12:59.854Z,7.60
2023-02-14T08:15:52.096Z,7.60
2023-02-14T08:18:23.322Z,8.00
2023-02-14T08:20:51.680Z,7.90
2023-02-14T08:23:20.526Z,8.10
2023-02-14T08:25:50.156Z,7.60
2023-02-14T08:28:18.704Z,8.00
2023-02-14T08:30:47.471Z,9.10
2023-02-14T08:33:15.473Z,10.00
2023-02-14T08:35:43.953Z,10.50
2023-02-14T08:38:12.504Z,9.30
2023-02-14T08:40:40.440Z,8.80
2023-02-14T08:43:09.485Z,9.30
2023-02-14T08:45:38.170Z,8.80
2023-02-14T08:48:09.501Z,8.50
2023-02-14T08:50:38.199Z,8.60
2023-02-14T08:53:11.353Z,8.90
2023-02-14T08:55:40.857Z,9.30
2023-02-14T08:58:09.102Z,10.30
2023-02-14T09:00:37.196Z,9.60
2023-02-14T09:03:05.645Z,10.20
2023-02-14T09:05:34.531Z,10.90
2023-02-14T09:08:03.898Z,11.50
2023-02-14T09:10:32.238Z,11.90
2023-02-14T09:13:00.352Z,11.20
2023-02-14T09:15:28.530Z,10.90
2023-02-14T09:17:56.754Z,11.20
2023-02-14T09:20:25.632Z,11.20
2023-02-14T09:22:57.319Z,10.30
2023-02-14T09:25:27.069Z,10.60
2023-02-14T09:27:54.995Z,10.80
2023-02-14T09:30:23.030Z,10.70
2023-02-14T09:32:53.001Z,11.50
2023-02-14T09:35:21.129Z,11.80
2023-02-14T09:38:07.900Z,12.30
2023-02-14T09:40:35.944Z,12.80
2023-02-14T09:43:07.470Z,12.60
2023-02-14T09:45:36.726Z,12.50
2023-02-14T09:48:05.318Z,13.10
2023-02-14T09:50:56.586Z,13.90
2023-02-14T09:53:32.012Z,14.20
2023-02-14T09:56:06.043Z,13.30
2023-02-14T09:58:40.914Z,12.80
2023-02-14T10:01:25.978Z,12.90
2023-02-14T10:04:24.839Z,13.10
2023-02-14T10:07:09.728Z,13.00
2023-02-14T10:09:41.452Z,13.30
2023-02-14T10:12:23.618Z,14.00
2023-02-14T10:14:55.675Z,14.30
2023-02-14T10:17:47.244Z,14.00
2023-02-14T10:20:32.301Z,14.20
2023-02-14T10:23:34.955Z,14.10
2023-02-14T10:26:16.486Z,14.10
2023-02-14T10:28:47.394Z,13.50
2023-02-14T10:31:24.781Z,12.80
2023-02-14T10:34:09.748Z,12.20
2023-02-14T10:36:49.672Z,12.40
2023-02-14T10:39:51.815Z,12.20
2023-02-14T10:42:37.536Z,12.30
2023-02-14T10:45:37.696Z,12.20
2023-02-14T10:48:30.424Z,12.30
2023-02-14T10:51:25.964Z,12.50
2023-02-14T10:54:15.521Z,12.60
2023-02-14T10:56:50.584Z,12.70
2023-02-14T10:59:49.489Z,12.40
2023-02-14T11:02:20.756Z,12.60
2023-02-14T11:04:49.915Z,12.70
2023-02-14T11:07:21.760Z,12.60
2023-02-14T11:09:50.248Z,12.60
2023-02-14T11:12:40.026Z,12.70
2023-02-14T11:15:24.020Z,12.80
2023-02-14T11:18:23.005Z,12.80
2023-02-14T11:21:15.155Z,12.90
2023-02-14T11:23:45.672Z,12.90
2023-02-14T11:26:30.162Z,13.00
2023-02-14T11:29:04.321Z,12.90
2023-02-14T11:31:40.377Z,13.00
2023-02-14T11:34:33.180Z,13.20
2023-02-14T11:37:01.383Z,13.10
2023-02-14T11:39:32.989Z,13.00
2023-02-14T11:42:05.447Z,13.10
2023-02-14T11:44:36.956Z,13.20
2023-02-14T11:47:32.646Z,13.00
2023-02-14T11:50:06.196Z,13.20
2023-02-14T11:52:39.627Z,13.40
2023-02-14T11:55:07.629Z,13.50
2023-02-14T11:57:39.063Z,13.60
2023-02-14T12:00:20.429Z,13.60
2023-02-14T12:02:53.219Z,13.50
2023-02-14T12:05:27.535Z,13.60
2023-02-14T12:08:02.362Z,13.60
2023-02-14T12:10:38.875Z,13.50
2023-02-14T12:13:09.959Z,13.70
2023-02-14T12:15:38.055Z,13.80
2023-02-14T12:18:12.324Z,13.90
2023-02-14T12:20:51.988Z,13.80
2023-02-14T12:23:25.725Z,13.80
2023-02-14T12:26:11.941Z,13.80
2023-02-14T12:28:48.665Z,13.90
2023-02-14T12:31:17.493Z,13.90
2023-02-14T12:33:47.503Z,13.90
2023-02-14T12:36:19.226Z,13.90
2023-02-14T12:39:12.714Z,13.90
2023-02-14T12:42:00.219Z,14.00
2023-02-14T12:44:54.297Z,13.80
2023-02-14T12:47:40.662Z,13.80
2023-02-14T12:50:31.664Z,14.00
2023-02-14T12:53:11.426Z,14.00
2023-02-14T12:56:11.171Z,14.00
2023-02-14T12:58:49.742Z,14.10
2023-02-14T13:01:44.468Z,14.10
2023-02-14T13:04:32.526Z,14.10
2023-02-14T13:07:04.963Z,14.00
2023-02-14T13:10:08.223Z,14.00
2023-02-14T13:12:52.321Z,14.10
2023-02-14T13:16:05.027Z,14.00
2023-02-14T13:18:44.885Z,14.10
2023-02-14T13:21:16.547Z,14.20
2023-02-14T13:23:48.510Z,14.30
2023-02-14T13:26:21.130Z,14.40
2023-02-14T13:28:58.780Z,14.40
2023-02-14T13:31:27.632Z,14.40
2023-02-14T13:34:03.357Z,14.30
2023-02-14T13:36:32.655Z,14.20
2023-02-14T13:39:01.486Z,14.30
2023-02-14T13:41:30.367Z,14.30
2023-02-14T13:44:01.772Z,14.30
2023-02-14T13:46:33.091Z,14.40
2023-02-14T13:49:24.440Z,14.40
2023-02-14T13:52:03.899Z,14.50
2023-02-14T13:54:36.180Z,14.50
2023-02-14T13:57:36.801Z,14.40
2023-02-14T14:00:20.530Z,14.40
2023-02-14T14:02:50.069Z,14.30
2023-02-14T14:05:30.959Z,14.20
2023-02-14T14:08:20.335Z,14.20
2023-02-14T14:11:00.053Z,14.30
2023-02-14T14:13:43.189Z,14.30
2023-02-14T14:16:29.405Z,14.30
2023-02-14T14:19:09.067Z,14.20
2023-02-14T14:21:43.644Z,14.30
2023-02-14T14:24:41.789Z,14.30
2023-02-14T14:27:24.034Z,14.40
2023-02-14T14:30:03.275Z,14.40
2023-02-14T14:32:37.087Z,14.30
2023-02-14T14:35:08.591Z,14.30
2023-02-14T14:37:46.426Z,14.50
2023-02-14T14:40:39.785Z,14.50
2023-02-14T14:43:14.822Z,14.40
2023-02-14T14:45:46.644Z,14.30
2023-02-14T14:48:38.921Z,14.30
2023-02-14T14:51:09.138Z,14.30
2023-02-14T14:53:47.258Z,14.20
2023-02-14T14:56:23.381Z,14.20
2023-02-14T14:58:52.559Z,14.20
2023-02-14T15:01:36.440Z,14.20
2023-02-14T15:04:25.540Z,14.40
2023-02-14T15:06:55.579Z,14.60
2023-02-14T15:09:31.823Z,14.50
2023-02-14T15:12:20.796Z,14.40
2023-02-14T15:14:54.881Z,14.40
2023-02-14T15:17:31.575Z,14.30
2023-02-14T15:20:03.175Z,14.40
2023-02-14T15:22:44.531Z,14.30
2023-02-14T15:25:25.853Z,14.20
2023-02-14T15:27:54.206Z,14.20
2023-02-14T15:30:30.843Z,14.10
2023-02-14T15:33:00.228Z,14.10
2023-02-14T15:35:32.160Z,14.10
2023-02-14T15:38:04.381Z,14.10
2023-02-14T15:40:34.860Z,14.20
2023-02-14T15:43:33.791Z,14.20
2023-02-14T15:46:21.106Z,14.30
2023-02-14T15:48:49.947Z,14.30
2023-02-14T15:51:24.661Z,14.10
2023-02-14T15:54:01.524Z,14.10
2023-02-14T15:56:34.023Z,14.00
2023-02-14T15:59:07.706Z,13.90
2023-02-14T16:01:37.979Z,13.80
2023-02-14T16:04:07.165Z,13.70
2023-02-14T16:06:40.646Z,13.60
2023-02-14T16:09:30.343Z,13.60
2023-02-14T16:11:58.771Z,13.40
2023-02-14T16:14:37.655Z,13.20
2023-02-14T16:17:15.649Z,13.10
2023-02-14T16:19:46.612Z,13.00
2023-02-14T16:22:32.248Z,12.80
2023-02-14T16:25:01.439Z,12.60
2023-02-14T16:27:30.979Z,12.50
2023-02-14T16:29:59.369Z,12.30
2023-02-14T16:32:27.948Z,12.20
2023-02-14T16:34:57.272Z,12.20
2023-02-14T16:37:33.317Z,12.10
2023-02-14T16:40:19.439Z,12.00
2023-02-14T16:42:47.692Z,11.80
2023-02-14T16:45:18.302Z,11.70
2023-02-14T16:47:47.905Z,11.50
2023-02-14T16:50:20.694Z,11.30
2023-02-14T16:52:51.800Z,11.30
2023-02-14T16:55:20.689Z,11.10
2023-02-14T16:57:50.384Z,11.10
2023-02-14T17:00:19.208Z,11.00
2023-02-14T17:02:47.627Z,10.90
2023-02-14T17:05:16.602Z,10.70
2023-02-14T17:07:44.797Z,10.60
2023-02-14T17:10:20.043Z,10.40
2023-02-14T17:12:49.731Z,10.30
2023-02-14T17:15:21.693Z,10.20
2023-02-14T17:17:50.878Z,10.10
2023-02-14T17:20:20.482Z,10.10
2023-02-14T17:22:49.852Z,10.10
2023-02-14T17:25:18.220Z,10.00
2023-02-14T17:27:46.791Z,9.90
2023-02-14T17:30:15.941Z,9.80
2023-02-14T17:32:44.833Z,9.70
2023-02-14T17:35:14.744Z,9.80
2023-02-14T17:37:43.179Z,9.60
2023-02-14T17:40:12.430Z,9.30
2023-02-14T17:42:41.207Z,9.00
2023-02-14T17:45:11.949Z,8.80
2023-02-14T17:47:41.134Z,8.60
2023-02-14T17:50:09.916Z,8.60
2023-02-14T17:52:38.092Z,8.60
2023-02-14T17:55:07.015Z,8.60
2023-02-14T17:57:36.990Z,8.50
2023-02-14T18:00:10.065Z,8.30
2023-02-14T18:02:42.066Z,8.20
2023-02-14T18:05:12.604Z,8.00
2023-02-14T18:07:41.138Z,7.70
2023-02-14T18:10:09.678Z,7.60
2023-02-14T18:12:38.469Z,7.50
2023-02-14T18:15:07.339Z,7.50
2023-02-14T18:17:36.152Z,7.40
2023-02-14T18:20:05.478Z,7.50
2023-02-14T18:22:33.423Z,7.50
2023-02-14T18:25:01.558Z,7.70
2023-02-14T18:27:31.192Z,7.50
2023-02-14T18:29:59.500Z,7.70
2023-02-14T18:32:27.881Z,7.60
2023-02-14T18:34:55.824Z,7.50
2023-02-14T18:37:24.178Z,7.50
2023-02-14T18:39:52.163Z,7.40
2023-02-14T18:42:20.860Z,7.20
2023-02-14T18:44:48.843Z,7.50
2023-02-14T18:47:17.236Z,7.40
2023-02-14T18:49:45.195Z,7.40
2023-02-14T18:52:14.185Z,7.40
2023-02-14T18:54:42.664Z,7.50
2023-02-14T18:57:10.918Z,7.60
2023-02-14T18:59:39.858Z,7.50
2023-02-14T19:02:09.128Z,7.20
2023-02-14T19:04:37.679Z,7.10
2023-02-14T19:07:06.343Z,7.00
2023-02-14T19:09:39.770Z,6.90
2023-02-14T19:12:07.782Z,7.00
2023-02-14T19:14:36.299Z,7.00
2023-02-14T19:17:05.274Z,6.80
2023-02-14T19:19:33.384Z,6.70
2023-02-14T19:22:02.685Z,6.50
2023-02-14T19:24:30.860Z,6.40
2023-02-14T19:26:59.072Z,6.40
2023-02-14T19:29:27.281Z,6.40
2023-02-14T19:31:55.677Z,6.50
2023-02-14T19:34:29.574Z,6.30
2023-02-14T19:37:00.607Z,6.10
2023-02-14T19:39:30.118Z,6.10
2023-02-14T19:41:59.600Z,6.00
2023-02-14T19:44:29.380Z,6.20
2023-02-14T19:47:00.349Z,6.30
2023-02-14T19:49:29.298Z,6.30
2023-02-14T19:51:58.898Z,6.20
2023-02-14T19:54:27.082Z,6.20
2023-02-14T19:56:58.363Z,6.20
2023-02-14T19:59:28.263Z,6.10
2023-02-14T20:01:58.371Z,6.00
2023-02-14T20:04:29.361Z,6.00
2023-02-14T20:06:57.832Z,5.90
2023-02-14T20:09:26.324Z,5.80
2023-02-14T20:11:57.114Z,5.70
2023-02-14T20:14:28.934Z,5.60
2023-02-14T20:16:58.798Z,5.50
2023-02-14T20:19:29.531Z,5.30
2023-02-14T20:21:59.000Z,5.10
2023-02-14T20:24:29.430Z,4.90
2023-02-14T20:26:58.560Z,4.80
2023-02-14T20:29:27.417Z,4.80
2023-02-14T20:32:03.508Z,4.60
2023-02-14T20:34:32.494Z,4.60
2023-02-14T20:37:00.901Z,4.50
2023-02-14T20:39:34.926Z,4.50
2023-02-14T20:42:03.846Z,4.60
2023-02-14T20:44:32.750Z,4.60
2023-02-14T20:47:00.766Z,4.70
2023-02-14T20:49:31.268Z,4.80
2023-02-14T20:51:59.858Z,4.80
2023-02-14T20:54:29.426Z,4.70
2023-02-14T20:56:58.147Z,4.50
2023-02-14T20:59:29.418Z,4.30
2023-02-14T21:01:59.643Z,4.20
2023-02-14T21:04:28.827Z,4.20
2023-02-14T21:06:58.052Z,4.20
2023-02-14T21:09:26.178Z,4.20
2023-02-14T21:11:57.401Z,4.20
2023-02-14T21:14:26.451Z,4.20
2023-02-14T21:16:54.661Z,4.10
2023-02-14T21:19:22.621Z,4.20
2023-02-14T21:21:50.921Z,4.10
2023-02-14T21:24:19.252Z,4.00
2023-02-14T21:26:47.920Z,4.00
2023-02-14T21:29:16.997Z,3.70
2023-02-14T21:31:45.084Z,3.70
2023-02-14T21:34:16.303Z,3.70
2023-02-14T21:36:47.734Z,3.80
2023-02-14T21:39:16.010Z,4.00
2023-02-14T21:41:43.898Z,4.20
2023-02-14T21:44:32.352Z,4.20
2023-02-14T21:47:00.727Z,4.20
2023-02-14T21:49:47.418Z,4.10
2023-02-14T21:52:15.525Z,4.00
2023-02-14T21:54:43.845Z,4.00
2023-02-14T21:57:11.716Z,3.80
2023-02-14T21:59:40.451Z,3.70
2023-02-14T22:02:11.109Z,3.80
2023-02-14T22:04:39.986Z,4.40
2023-02-14T22:07:09.245Z,4.40
2023-02-14T22:09:37.646Z,4.40
2023-02-14T22:12:06.033Z,4.30
2023-02-14T22:14:33.942Z,4.20
2023-02-14T22:17:01.960Z,4.10
2023-02-14T22:19:29.863Z,4.10
2023-02-14T22:21:57.912Z,4.10
2023-02-14T22:24:26.042Z,4.00
2023-02-14T22:26:53.988Z,4.00
2023-02-14T22:29:22.522Z,3.90
2023-02-14T22:31:50.732Z,3.90
2023-02-14T22:34:19.906Z,3.90
2023-02-14T22:36:49.501Z,3.80
2023-02-14T22:39:59.216Z,4.10
2023-02-14T22:42:33.938Z,4.30
2023-02-14T22:45:02.330Z,4.20
2023-02-14T22:47:32.560Z,4.10
2023-02-14T22:50:01.500Z,3.80
2023-02-14T22:52:30.121Z,3.30
2023-02-14T22:54:57.986Z,3.00
2023-02-14T22:57:25.975Z,3.00
2023-02-14T22:59:53.840Z,3.10
2023-02-14T23:02:22.404Z,3.40
2023-02-14T23:04:51.342Z,3.60
2023-02-14T23:07:19.854Z,3.80
2023-02-14T23:09:49.328Z,3.70
2023-02-14T23:12:38.679Z,3.60
2023-02-14T23:15:25.638Z,3.50
2023-02-14T23:18:11.986Z,3.30
2023-02-14T23:20:58.305Z,3.20
2023-02-14T23:23:31.320Z,3.10
2023-02-14T23:26:00.519Z,3.00
2023-02-14T23:28:29.974Z,3.10
2023-02-14T23:31:01.718Z,3.00
2023-02-14T23:33:30.233Z,2.70
2023-02-14T23:36:01.919Z,2.70
2023-02-14T23:38:30.126Z,2.70
2023-02-14T23:41:17.441Z,2.60
2023-02-14T23:43:45.393Z,2.60
2023-02-14T23:46:13.764Z,2.50
2023-02-14T23:48:41.762Z,2.40
2023-02-14T23:51:09.687Z,2.40
2023-02-14T23:53:37.559Z,2.50
2023-02-14T23:56:06.037Z,2.50
2023-02-14T23:58:34.453Z,2.50
